• Join FlightAware (Why Join?)
  • Login
  • US Flag 
12:12PM EDT


 

Airport Tracker/Info


-or-


 

Live Flight TrackerFlight Track Log ✈ N502QS ✈ 11-Jul-2013 ✈ KTEB - LFMN / NCE

Flight Track Log - Related Links

Times and Time Zones

All times are in EDT time to prevent confusion due to time zone crossing. See the N502QS flight status page for this flight to view local times or setup timezone preferences in your user account.

Time Position Orientation Groundspeed Altitude Reporting Facility
EDT Latitude Longitude Course Direction KTS MPH feet Rate Location/Type
12:57AM 40.9000 -74.0333 66° East 186 214 2,300  Level New York TRACON
12:59AM 41.0044 -73.9392 34° Northeast 261 300 7,600 2,880 Climbing Boston Center
01:00AM 41.0642 -73.8497 48° Northeast 284 327 11,000 2,640 Climbing Boston Center
01:01AM 41.1047 -73.7569 60° Northeast 310 357 12,900 2,100 Climbing Boston Center
01:02AM 41.1625 -73.6311 59° Northeast 341 392 15,200 2,100 Climbing Boston Center
01:03AM 41.2888 -73.4837 66° East  Level FlightAware Approximate
01:03AM 41.2117 -73.5133 61° Northeast 374 430 17,100  Level Boston Center
01:04AM 41.2731 -73.3847 58° Northeast 402 463 19,200 2,040 Climbing Boston Center
01:05AM 41.3347 -73.2500 59° Northeast 417 480 21,200 2,040 Climbing Boston Center
01:06AM 41.3981 -73.1042 60° Northeast 429 494 23,300 2,220 Climbing Boston Center
01:07AM 41.4614 -72.9581 60° Northeast 441 507 25,700 1,860 Climbing Boston Center
01:08AM 41.5286 -72.8089 59° Northeast 447 514 27,100 1,620 Climbing Boston Center
01:09AM 41.6042 -72.6428 59° Northeast 461 531 29,000 1,620 Climbing Boston Center
01:10AM 41.7000 -72.5014 48° Northeast 500 575 30,400 1,380 Climbing Boston Center
01:11AM 41.7981 -72.3622 47° Northeast 505 581 31,800 1,200 Climbing Boston Center
01:12AM 41.9019 -72.2114 47° Northeast 520 598 32,900 1,260 Climbing Boston Center
01:13AM 42.0058 -72.0631 47° Northeast 532 612 34,400 1,500 Climbing Boston Center
01:14AM 42.1094 -71.9139 47° Northeast 538 619 36,000 1,500 Climbing Boston Center
01:15AM 42.2150 -71.7617 47° Northeast 538 619 37,400 1,500 Climbing Boston Center
01:16AM 42.3142 -71.6147 48° Northeast 543 625 39,000 1,380 Climbing Boston Center
01:17AM 42.4172 -71.4697 46° Northeast 538 619 40,200 900 Climbing Boston Center
01:18AM 42.5200 -71.3217 47° Northeast 532 612 40,900 300 Climbing Boston Center
01:19AM 42.6183 -71.1733 48° Northeast 527 606 40,900  Level Boston Center
01:20AM 42.7208 -71.0214 47° Northeast 527 606 40,900  Level Boston Center
01:21AM 42.8208 -70.8692 48° Northeast 533 613 40,900  Level Boston Center
01:22AM 42.9231 -70.7161 48° Northeast 533 613 40,900  Level Boston Center
01:23AM 43.0106 -70.5803 49° Northeast 533 613 40,900  Level Boston Center
01:24AM 43.1100 -70.4264 48° Northeast 533 613 40,900  Level Boston Center
01:25AM 43.2092 -70.2694 49° Northeast 533 613 40,900  Level Boston Center
01:26AM 43.3103 -70.1144 48° Northeast 533 613 40,900  Level Boston Center
01:27AM 43.4072 -69.9622 49° Northeast 533 613 40,900  Level Boston Center
01:28AM 43.5078 -69.8036 49° Northeast 538 619 40,900  Level Boston Center
01:29AM 43.6064 -69.6500 48° Northeast 538 619 40,900  Level Boston Center
01:30AM 43.7067 -69.4931 48° Northeast 538 619 40,900  Level Boston Center
01:31AM 43.8067 -69.3328 49° Northeast 538 619 40,900  Level Boston Center
01:32AM 43.9064 -69.1750 49° Northeast 543 625 40,900  Level Boston Center
01:33AM 43.9861 -69.0464 49° Northeast 543 625 40,900  Level Boston Center
01:34AM 44.1056 -68.8575 49° Northeast 543 625 40,900 120 Level Boston Center
01:35AM 44.2044 -68.6950 50° Northeast 543 625 41,200 300 Climbing Boston Center
01:36AM 44.3014 -68.5381 49° Northeast 543 625 41,600 420 Climbing Boston Center
01:37AM 44.4000 -68.3775 49° Northeast 543 625 42,100 540 Climbing Boston Center
01:38AM 44.4986 -68.2164 49° Northeast 543 625 42,700 360 Climbing Boston Center
01:39AM 44.5928 -68.0608 50° Northeast 536 617 42,900 60 Climbing Boston Center
01:40AM 44.6869 -67.9078 49° Northeast 524 603 42,900  Level Boston Center
01:41AM 44.7847 -67.7450 50° Northeast 524 603 42,900  Level Boston Center
01:42AM 44.8858 -67.5728 50° Northeast 524 603 42,900  Level Boston Center
01:43AM 44.9333 -67.4500 61° Northeast 530 610 42,900  Level Moncton Center
01:44AM 45.0333 -67.2833 50° Northeast 520 598 42,900  Level Moncton Center
01:45AM 45.1167 -67.1167 55° Northeast 520 598 42,900  Level Moncton Center
01:46AM 45.2167 -66.9833 43° Northeast 520 598 42,900  Level Moncton Center
01:47AM 45.3167 -66.8000 52° Northeast 520 598 42,900  Level Moncton Center
01:48AM 45.4000 -66.6667 48° Northeast 520 598 42,900  Level Moncton Center
01:49AM 45.5000 -66.5000 49° Northeast 520 598 42,900  Level Moncton Center
01:50AM 45.6000 -66.3167 52° Northeast 530 610 42,900  Level Moncton Center
01:51AM 45.6833 -66.1667 51° Northeast 530 610 42,900  Level Moncton Center
01:52AM 45.7667 -66.0000 54° Northeast 530 610 42,900  Level Moncton Center
01:53AM 45.8667 -65.8333 49° Northeast 530 610 42,900  Level Moncton Center
01:54AM 45.9500 -65.6667 54° Northeast 530 610 42,900  Level Moncton Center
01:55AM 46.0500 -65.5000 49° Northeast 530 610 42,900  Level Moncton Center
01:56AM 46.1333 -65.3333 54° Northeast 530 610 42,900  Level Moncton Center
01:57AM 46.2167 -65.1667 54° Northeast 530 610 42,900  Level Moncton Center
01:58AM 46.3333 -65.0000 45° Northeast 530 610 42,900  Level Moncton Center
01:59AM 46.4167 -64.8333 54° Northeast 530 610 42,900  Level Moncton Center
02:00AM 46.5167 -64.6333 54° Northeast 530 610 42,900  Level Moncton Center
02:01AM 46.6000 -64.5000 48° Northeast 530 610 42,900  Level Moncton Center
02:02AM 46.7000 -64.3000 54° Northeast 530 610 42,900  Level Moncton Center
02:03AM 46.7833 -64.1333 54° Northeast 530 610 42,900  Level Moncton Center
02:04AM 46.8667 -63.9833 51° Northeast 530 610 42,900  Level Moncton Center
02:05AM 46.9167 -63.8500 61° Northeast 530 610 42,900  Level Gander Center
02:06AM 47.0000 -63.6833 54° Northeast 540 621 42,900  Level Gander Center
02:07AM 47.0833 -63.5167 54° Northeast 540 621 42,900  Level Gander Center
02:08AM 47.2000 -63.3500 44° Northeast 530 610 42,900  Level Gander Center
02:09AM 47.2833 -63.1833 54° Northeast 530 610 42,900  Level Gander Center
02:10AM 47.3667 -62.9833 58° Northeast 530 610 42,900  Level Gander Center
02:11AM 47.4500 -62.8167 53° Northeast 530 610 42,900  Level Gander Center
02:12AM 47.5333 -62.6500 53° Northeast 530 610 42,900  Level Gander Center
02:13AM 47.6167 -62.4667 56° Northeast 530 610 42,900  Level Gander Center
02:14AM 47.7167 -62.3000 48° Northeast 530 610 42,900  Level Gander Center
02:15AM 47.8000 -62.1000 58° Northeast 530 610 42,900  Level Gander Center
02:16AM 47.8833 -61.9333 53° Northeast 530 610 42,900  Level Gander Center
02:17AM 47.9833 -61.7500 51° Northeast 530 610 42,900  Level Gander Center
02:18AM 48.0667 -61.5500 58° Northeast 540 621 42,900  Level Gander Center
02:19AM 48.1500 -61.3833 53° Northeast 530 610 42,900  Level Gander Center
02:20AM 48.2333 -61.2000 56° Northeast 530 610 42,900  Level Gander Center
02:21AM 48.3167 -61.0333 53° Northeast 530 610 42,900  Level Gander Center
02:22AM 48.4000 -60.8333 58° Northeast 530 610 42,900  Level Gander Center
02:23AM 48.4833 -60.6500 56° Northeast 530 610 42,900  Level Gander Center
02:24AM 48.5667 -60.4667 55° Northeast 530 610 42,900  Level Gander Center
02:25AM 48.6500 -60.3000 53° Northeast 530 610 42,900  Level Gander Center
02:26AM 48.7500 -60.0833 55° Northeast 530 610 42,900  Level Gander Center
02:27AM 48.8167 -59.9167 59° Northeast 530 610 42,900  Level Gander Center
02:28AM 48.9000 -59.7333 55° Northeast 530 610 42,900  Level Gander Center
02:29AM 48.9833 -59.5500 55° Northeast 530 610 42,900  Level Gander Center
02:30AM 49.0667 -59.3667 55° Northeast 530 610 42,900  Level Gander Center
02:31AM 49.1500 -59.1667 57° Northeast 530 610 42,900  Level Gander Center
02:32AM 49.2333 -58.9833 55° Northeast 530 610 42,900  Level Gander Center
02:33AM 49.3000 -58.8000 61° Northeast 530 610 42,900  Level Gander Center
02:34AM 49.3833 -58.5833 59° Northeast 530 610 42,900  Level Gander Center
02:35AM 49.4667 -58.4000 55° Northeast 530 610 42,900  Level Gander Center
02:36AM 49.5333 -58.1833 65° Northeast 530 610 42,900  Level Gander Center
02:37AM 49.6000 -58.0000 61° Northeast 530 610 42,900  Level Gander Center
02:38AM 49.6667 -57.8167 61° Northeast 520 598 42,900  Level Gander Center
02:39AM 49.7500 -57.6000 59° Northeast 530 610 42,900  Level Gander Center
02:40AM 49.8000 -57.4167 67° East 530 610 42,900  Level Gander Center
02:41AM 49.8833 -57.2000 59° Northeast 530 610 42,900  Level Gander Center
02:42AM 49.9333 -57.0000 69° East 520 598 42,900  Level Gander Center
02:43AM 50.0167 -56.8000 57° Northeast 520 598 42,900  Level Gander Center
02:44AM 50.0833 -56.6167 60° Northeast 520 598 42,900  Level Gander Center
02:45AM 50.1333 -56.4000 70° East 530 610 42,900  Level Gander Center
02:46AM 50.2167 -56.2167 55° Northeast 520 598 42,900  Level Gander Center
02:47AM 50.2667 -56.0000 70° East 520 598 42,900  Level Gander Center
02:48AM 50.3333 -55.7833 64° Northeast 520 598 42,900  Level Gander Center
02:49AM 50.4000 -55.5833 62° Northeast 530 610 42,900  Level Gander Center
02:50AM 50.4667 -55.3667 64° Northeast 520 598 42,900  Level Gander Center
02:51AM 50.5333 -55.1833 60° Northeast 520 598 42,900  Level Gander Center
02:52AM 50.6000 -54.9500 66° East 520 598 42,900  Level Gander Center
02:53AM 50.6500 -54.7667 67° East 520 598 42,900  Level Gander Center
02:54AM 50.7333 -54.5333 60° Northeast 520 598 42,900  Level Gander Center
02:55AM 50.7833 -54.3500 67° East 520 598 42,900  Level Gander Center
02:56AM 50.8500 -54.1167 66° East 520 598 42,900  Level Gander Center
02:57AM 50.9000 -53.9333 67° East 520 598 42,900  Level Gander Center
02:58AM 50.9667 -53.7333 62° Northeast 530 610 42,900  Level Gander Center
02:59AM 51.0333 -53.5167 64° Northeast 530 610 42,900  Level Gander Center
03:00AM 51.0833 -53.3167 68° East 520 598 42,900  Level Gander Center
03:01AM 51.1500 -53.0833 65° Northeast 520 598 42,900  Level Gander Center
03:02AM 51.2000 -52.8833 68° East 520 598 42,900  Level Gander Center
03:03AM 51.2667 -52.6667 64° Northeast 520 598 42,900  Level Gander Center
03:04AM 51.3333 -52.4667 62° Northeast 520 598 42,900  Level Gander Center
03:05AM 51.3833 -52.2333 71° East 520 598 42,900  Level Gander Center
03:06AM 51.4500 -52.0333 62° Northeast 510 587 42,900  Level Gander Center
03:07AM 51.5000 -51.8333 68° East 510 587 42,900  Level Gander Center
03:08AM 51.5667 -51.6000 65° Northeast 510 587 42,900  Level Gander Center
03:09AM 51.6167 -51.4000 68° East 510 587 42,900  Level Gander Center
03:10AM 51.6833 -51.1667 65° Northeast 500 575 42,900  Level Gander Center
03:11AM 51.7333 -50.9667 68° East 510 587 42,900  Level Gander Center
03:12AM 51.7833 -50.7667 68° East 510 587 42,900  Level Gander Center
03:13AM 51.8333 -50.5333 71° East 510 587 42,900  Level Gander Center
03:14AM 51.8833 -50.3667 64° Northeast 510 587 42,900  Level Gander Center
03:15AM 51.9500 -50.1333 65° Northeast 510 587 42,900  Level Gander Center
03:16AM 52.0000 -49.9167 69° East 510 587 42,900  Level Gander Center
03:17AM 52.0000 -50.0000 68° East 506 582 43,000  Climbing ETMS Enhanced Traffic Management System
03:24AM 52.4660 -48.0761 69° East 506 582 43,000  Level FlightAware Transoceanic
03:25AM 52.5158 -47.8598 69° East 506 582 43,000  Level FlightAware Transoceanic
03:26AM 52.5653 -47.6431 70° East 506 582 43,000  Level FlightAware Transoceanic
03:27AM 52.6143 -47.4258 70° East 506 582 43,000  Level FlightAware Transoceanic
03:28AM 52.6629 -47.2081 70° East 506 582 43,000  Level FlightAware Transoceanic
03:29AM 52.7112 -46.9899 70° East 506 582 43,000  Level FlightAware Transoceanic
03:30AM 52.7590 -46.7713 70° East 506 582 43,000  Level FlightAware Transoceanic
03:31AM 52.8065 -46.5521 70° East 506 582 43,000  Level FlightAware Transoceanic
03:32AM 52.8535 -46.3325 71° East 506 582 43,000  Level FlightAware Transoceanic
03:33AM 52.9001 -46.1124 71° East 506 582 43,000  Level FlightAware Transoceanic
03:34AM 52.9463 -45.8918 71° East 506 582 43,000  Level FlightAware Transoceanic
03:35AM 52.9921 -45.6708 71° East 506 582 43,000  Level FlightAware Transoceanic
03:36AM 53.0376 -45.4492 71° East 506 582 43,000  Level FlightAware Transoceanic
03:37AM 53.0825 -45.2273 71° East 506 582 43,000  Level FlightAware Transoceanic
03:38AM 53.1271 -45.0048 72° East 506 582 43,000  Level FlightAware Transoceanic
03:39AM 53.1713 -44.7819 72° East 506 582 43,000  Level FlightAware Transoceanic
03:40AM 53.2150 -44.5586 72° East 506 582 43,000  Level FlightAware Transoceanic
03:41AM 53.2583 -44.3348 72° East 506 582 43,000  Level FlightAware Transoceanic
03:42AM 53.3012 -44.1105 72° East 506 582 43,000  Level FlightAware Transoceanic
03:43AM 53.3437 -43.8858 73° East 506 582 43,000  Level FlightAware Transoceanic
03:44AM 53.3858 -43.6606 73° East 506 582 43,000  Level FlightAware Transoceanic
03:45AM 53.4274 -43.4350 73° East 506 582 43,000  Level FlightAware Transoceanic
03:46AM 53.4686 -43.2090 73° East 506 582 43,000  Level FlightAware Transoceanic
03:47AM 53.5094 -42.9825 73° East 506 582 43,000  Level FlightAware Transoceanic
03:48AM 53.5498 -42.7556 73° East 506 582 43,000  Level FlightAware Transoceanic
03:49AM 53.5897 -42.5283 74° East 506 582 43,000  Level FlightAware Transoceanic
03:50AM 53.6292 -42.3005 74° East 506 582 43,000  Level FlightAware Transoceanic
03:51AM 53.6682 -42.0723 74° East 506 582 43,000  Level FlightAware Transoceanic
03:52AM 53.7068 -41.8437 74° East 506 582 43,000  Level FlightAware Transoceanic
03:53AM 53.7450 -41.6146 74° East 506 582 43,000  Level FlightAware Transoceanic
03:54AM 53.7828 -41.3852 75° East 506 582 43,000  Level FlightAware Transoceanic
03:55AM 53.8201 -41.1553 75° East 506 582 43,000  Level FlightAware Transoceanic
03:56AM 53.8569 -40.9251 75° East 506 582 43,000  Level FlightAware Transoceanic
03:57AM 53.8934 -40.6944 75° East 506 582 43,000  Level FlightAware Transoceanic
03:58AM 53.9294 -40.4633 75° East 506 582 43,000  Level FlightAware Transoceanic
03:59AM 53.9649 -40.2319 75° East 506 582 43,000 240 Level FlightAware Transoceanic
04:00AM 53.9995 -40.0030 75° East  Level FlightAware Approximate
04:01AM 54.0340 -39.7739 76° East  Level FlightAware Approximate
04:02AM 53.9868 -39.7710 95° East  Level FlightAware Approximate
04:03AM 53.9729 -39.5359 96° East  Level FlightAware Approximate
04:04AM 53.9584 -39.3010 96° East  Level FlightAware Approximate
04:05AM 53.9435 -39.0663 96° East  Level FlightAware Approximate
04:05AM 54.0000 -40.0000 95° East 504 580 45,000  Level ETMS Enhanced Traffic Management System
04:06AM 53.9282 -38.8317 96° East  Level FlightAware Approximate
04:07AM 53.9123 -38.5973 96° East  Level FlightAware Approximate
04:08AM 53.8961 -38.3631 97° East  Level FlightAware Approximate
04:09AM 53.8793 -38.1291 97° East  Level FlightAware Approximate
04:10AM 53.8622 -37.8952 97° East  Level FlightAware Approximate
04:11AM 53.8425 -37.6351 97° East 504 580 45,000  Level FlightAware Transoceanic
04:12AM 53.8242 -37.3997 98° East 504 580 45,000  Level FlightAware Transoceanic
04:13AM 53.8054 -37.1644 98° East 504 580 45,000  Level FlightAware Transoceanic
04:14AM 53.7862 -36.9294 98° East 504 580 45,000  Level FlightAware Transoceanic
04:15AM 53.7665 -36.6946 98° East 504 580 45,000  Level FlightAware Transoceanic
04:16AM 53.7464 -36.4600 98° East 504 580 45,000  Level FlightAware Transoceanic
04:17AM 53.7258 -36.2256 99° East 504 580 45,000  Level FlightAware Transoceanic
04:18AM 53.7047 -35.9915 99° East 504 580 45,000  Level FlightAware Transoceanic
04:19AM 53.6832 -35.7576 99° East 504 580 45,000  Level FlightAware Transoceanic
04:20AM 53.6613 -35.5239 99° East 504 580 45,000  Level FlightAware Transoceanic
04:21AM 53.6389 -35.2905 99° East 504 580 45,000  Level FlightAware Transoceanic
04:22AM 53.6160 -35.0574 99° East 504 580 45,000  Level FlightAware Transoceanic
04:23AM 53.5927 -34.8245 100° East 504 580 45,000  Level FlightAware Transoceanic
04:24AM 53.5689 -34.5918 100° East 504 580 45,000  Level FlightAware Transoceanic
04:25AM 53.5447 -34.3594 100° East 504 580 45,000  Level FlightAware Transoceanic
04:26AM 53.5200 -34.1273 100° East 504 580 45,000  Level FlightAware Transoceanic
04:27AM 53.4949 -33.8955 100° East 504 580 45,000  Level FlightAware Transoceanic
04:28AM 53.4693 -33.6639 101° East 504 580 45,000  Level FlightAware Transoceanic
04:29AM 53.4433 -33.4327 101° East 504 580 45,000  Level FlightAware Transoceanic
04:30AM 53.4168 -33.2017 101° East 504 580 45,000  Level FlightAware Transoceanic
04:31AM 53.3899 -32.9710 101° East 504 580 45,000  Level FlightAware Transoceanic
04:32AM 53.3625 -32.7405 101° East 504 580 45,000  Level FlightAware Transoceanic
04:33AM 53.3347 -32.5104 102° East 504 580 45,000  Level FlightAware Transoceanic
04:34AM 53.3065 -32.2806 102° East 504 580 45,000  Level FlightAware Transoceanic
04:35AM 53.2778 -32.0511 102° East 504 580 45,000  Level FlightAware Transoceanic
04:36AM 53.2487 -31.8219 102° East 504 580 45,000  Level FlightAware Transoceanic
04:37AM 53.2191 -31.5930 102° East 504 580 45,000  Level FlightAware Transoceanic
04:38AM 53.1891 -31.3645 102° East 504 580 45,000  Level FlightAware Transoceanic
04:39AM 53.1587 -31.1362 103° East 504 580 45,000  Level FlightAware Transoceanic
04:40AM 53.1278 -30.9083 103° East 504 580 45,000  Level FlightAware Transoceanic
04:41AM 53.0965 -30.6807 103° East 504 580 45,000  Level FlightAware Transoceanic
04:42AM 53.0648 -30.4535 103° East 504 580 45,000  Level FlightAware Transoceanic
04:43AM 53.0326 -30.2266 103° East 504 580 45,000  Level FlightAware Transoceanic
04:44AM 53.0003 -30.0019 103° East  Level FlightAware Approximate
04:45AM 52.9677 -29.7776 103° East  Level FlightAware Approximate
04:46AM 52.9871 -29.7742 95° East  Level FlightAware Approximate
04:47AM 52.9735 -29.5445 96° East  Level FlightAware Approximate
04:48AM 52.9595 -29.3150 96° East  Level FlightAware Approximate
04:49AM 52.9450 -29.0856 96° East  Level FlightAware Approximate
04:49AM 53.0000 -30.0000 95° East 504 580 45,000  Level ETMS Enhanced Traffic Management System
04:50AM 52.9301 -28.8564 96° East  Level FlightAware Approximate
04:51AM 52.9148 -28.6274 96° East  Level FlightAware Approximate
04:52AM 52.8990 -28.3985 96° East  Level FlightAware Approximate
04:53AM 52.8828 -28.1698 97° East  Level FlightAware Approximate
04:54AM 52.8661 -27.9412 97° East  Level FlightAware Approximate
04:55AM 52.8296 -27.4600 97° East 504 580 45,000  Level FlightAware Transoceanic
04:56AM 52.8114 -27.2302 98° East 504 580 45,000  Level FlightAware Transoceanic
04:57AM 52.7928 -27.0005 98° East 504 580 45,000  Level FlightAware Transoceanic
04:58AM 52.7738 -26.7710 98° East 504 580 45,000  Level FlightAware Transoceanic
04:59AM 52.7542 -26.5418 98° East 504 580 45,000  Level FlightAware Transoceanic
05:00AM 52.7343 -26.3127 98° East 504 580 45,000  Level FlightAware Transoceanic
05:01AM 52.7139 -26.0839 98° East 504 580 45,000  Level FlightAware Transoceanic
05:02AM 52.6931 -25.8552 99° East 504 580 45,000  Level FlightAware Transoceanic
05:03AM 52.6718 -25.6268 99° East 504 580 45,000  Level FlightAware Transoceanic
05:04AM 52.6502 -25.3987 99° East 504 580 45,000  Level FlightAware Transoceanic
05:05AM 52.6280 -25.1707 99° East 504 580 45,000  Level FlightAware Transoceanic
05:06AM 52.6054 -24.9430 99° East 504 580 45,000  Level FlightAware Transoceanic
05:07AM 52.5824 -24.7155 100° East 504 580 45,000  Level FlightAware Transoceanic
05:08AM 52.5590 -24.4883 100° East 504 580 45,000  Level FlightAware Transoceanic
05:09AM 52.5351 -24.2613 100° East 504 580 45,000  Level FlightAware Transoceanic
05:10AM 52.5108 -24.0345 100° East 504 580 45,000  Level FlightAware Transoceanic
05:11AM 52.4860 -23.8080 100° East 504 580 45,000  Level FlightAware Transoceanic
05:12AM 52.4609 -23.5818 100° East 504 580 45,000  Level FlightAware Transoceanic
05:13AM 52.4352 -23.3558 101° East 504 580 45,000  Level FlightAware Transoceanic
05:14AM 52.4092 -23.1301 101° East 504 580 45,000  Level FlightAware Transoceanic
05:15AM 52.3827 -22.9046 101° East 504 580 45,000  Level FlightAware Transoceanic
05:16AM 52.3558 -22.6795 101° East 504 580 45,000  Level FlightAware Transoceanic
05:17AM 52.3285 -22.4546 101° East 504 580 45,000  Level FlightAware Transoceanic
05:18AM 52.3008 -22.2300 102° East 504 580 45,000  Level FlightAware Transoceanic
05:19AM 52.2726 -22.0056 102° East 504 580 45,000  Level FlightAware Transoceanic
05:20AM 52.2440 -21.7816 102° East 504 580 45,000  Level FlightAware Transoceanic
05:21AM 52.2150 -21.5578 102° East 504 580 45,000  Level FlightAware Transoceanic
05:22AM 52.1855 -21.3344 102° East 504 580 45,000  Level FlightAware Transoceanic
05:23AM 52.1556 -21.1112 102° East 504 580 45,000  Level FlightAware Transoceanic
05:24AM 52.1254 -20.8884 103° East 504 580 45,000  Level FlightAware Transoceanic
05:25AM 52.0946 -20.6658 103° East 504 580 45,000  Level FlightAware Transoceanic
05:26AM 52.0635 -20.4436 103° East 504 580 45,000  Level FlightAware Transoceanic
05:27AM 52.0320 -20.2216 103° East 504 580 45,000  Level FlightAware Transoceanic
05:28AM 52.0003 -20.0018 103° East  Level FlightAware Approximate
05:29AM 51.9685 -19.7822 103° East  Level FlightAware Approximate
05:30AM 51.9604 -19.7876 107° East  Level FlightAware Approximate
05:31AM 51.9198 -19.5721 107° East  Level FlightAware Approximate
05:32AM 51.8788 -19.3570 107° East  Level FlightAware Approximate
05:33AM 51.8374 -19.1422 107° East  Level FlightAware Approximate
05:34AM 51.7956 -18.9279 107° East  Level FlightAware Approximate
05:35AM 51.7534 -18.7139 108° East  Level FlightAware Approximate
05:36AM 51.7109 -18.5004 108° East  Level FlightAware Approximate
05:37AM 51.6679 -18.2872 108° East  Level FlightAware Approximate
05:38AM 51.6246 -18.0745 108° East  Level FlightAware Approximate
05:39AM 51.5809 -17.8621 108° East  Level FlightAware Approximate
05:40AM 51.5368 -17.6502 108° East  Level FlightAware Approximate
05:41AM 51.4923 -17.4387 109° East  Level FlightAware Approximate
05:42AM 51.4474 -17.2276 109° East  Level FlightAware Approximate
05:43AM 51.4022 -17.0169 109° East  Level FlightAware Approximate
05:44AM 51.3565 -16.8067 109° East  Level FlightAware Approximate
05:45AM 51.3105 -16.5968 109° East  Level FlightAware Approximate
05:46AM 51.2642 -16.3874 109° East  Level FlightAware Approximate
05:47AM 51.2174 -16.1784 110° East  Level FlightAware Approximate
05:48AM 51.1703 -15.9698 110° East  Level FlightAware Approximate
05:49AM 51.1228 -15.7617 110° East  Level FlightAware Approximate
05:50AM 51.0750 -15.5539 110° East  Level FlightAware Approximate
05:51AM 51.0268 -15.3467 110° East  Level FlightAware Approximate
05:52AM 50.9782 -15.1398 110° East  Level FlightAware Approximate
05:53AM 50.9292 -14.9334 111° Southeast  Level FlightAware Approximate
05:54AM 50.8799 -14.7274 111° Southeast  Level FlightAware Approximate
05:55AM 50.8302 -14.5218 111° Southeast  Level FlightAware Approximate
05:56AM 50.7802 -14.3167 111° Southeast  Level FlightAware Approximate
05:57AM 50.7298 -14.1121 111° Southeast  Level FlightAware Approximate
05:58AM 50.6790 -13.9078 111° Southeast  Level FlightAware Approximate
05:59AM 50.6279 -13.7040 112° Southeast  Level FlightAware Approximate
06:00AM 50.5765 -13.5007 112° Southeast  Level FlightAware Approximate
06:01AM 50.5247 -13.2978 112° Southeast  Level FlightAware Approximate
06:02AM 50.4725 -13.0954 112° Southeast  Level FlightAware Approximate
06:03AM 50.4200 -12.8933 112° Southeast  Level FlightAware Approximate
06:04AM 50.3671 -12.6918 112° Southeast  Level FlightAware Approximate
06:05AM 50.3139 -12.4907 112° Southeast  Level FlightAware Approximate
06:06AM 50.2603 -12.2900 113° Southeast  Level FlightAware Approximate
06:07AM 50.2064 -12.0899 113° Southeast  Level FlightAware Approximate
06:08AM 50.1521 -11.8901 113° Southeast  Level FlightAware Approximate
06:09AM 50.0976 -11.6908 113° Southeast  Level FlightAware Approximate
06:10AM 50.0426 -11.4920 113° Southeast  Level FlightAware Approximate
06:11AM 49.9874 -11.2936 113° Southeast  Level FlightAware Approximate
06:12AM 49.9318 -11.0957 114° Southeast  Level FlightAware Approximate
06:13AM 49.8758 -10.8982 114° Southeast  Level FlightAware Approximate
06:14AM 49.8195 -10.7012 114° Southeast  Level FlightAware Approximate
06:15AM 49.7629 -10.5046 114° Southeast  Level FlightAware Approximate
06:16AM 49.7060 -10.3085 114° Southeast  Level FlightAware Approximate
06:17AM 49.6487 -10.1129 114° Southeast  Level FlightAware Approximate
06:18AM 49.5911 -9.9178 114° Southeast  Level FlightAware Approximate
06:19AM 49.5332 -9.7231 115° Southeast  Level FlightAware Approximate
06:20AM 49.4749 -9.5288 115° Southeast  Level FlightAware Approximate
06:21AM 49.4163 -9.3350 115° Southeast  Level FlightAware Approximate
06:22AM 49.3574 -9.1417 115° Southeast  Level FlightAware Approximate
06:23AM 49.2982 -8.9489 115° Southeast  Level FlightAware Approximate
06:23AM 49.6423 -8.9700 115° Southeast 488 562 46,900  Level FlightAware UK
06:23AM 49.6184 -8.8728 111° Southeast 486 559 46,900  Level FlightAware UK
06:24AM 49.5946 -8.7759 111° Southeast 486 559 46,900  Level FlightAware UK
06:24AM 49.5707 -8.6789 111° Southeast 486 559 46,900  Level FlightAware UK
06:25AM 49.5466 -8.5821 111° Southeast 486 559 46,900  Level FlightAware UK
06:25AM 49.5223 -8.4854 111° Southeast 486 559 46,900  Level FlightAware UK
06:26AM 49.4980 -8.3887 111° Southeast 486 559 46,900  Level FlightAware UK
06:26AM 49.4737 -8.2921 111° Southeast 486 559 46,900  Level FlightAware UK
06:27AM 49.4494 -8.1955 111° Southeast 488 562 46,900  Level FlightAware UK
06:27AM 49.4249 -8.0990 111° Southeast 488 562 46,900  Level FlightAware UK
06:28AM 49.4000 -8.0019 111° Southeast 488 562 46,900  Level FlightAware UK
06:28AM 49.3752 -7.9055 111° Southeast 486 559 46,900  Level FlightAware UK
06:29AM 49.3504 -7.8092 112° Southeast 486 559 46,900  Level FlightAware UK
06:29AM 49.3256 -7.7128 111° Southeast 486 559 46,900  Level FlightAware UK
06:30AM 49.3006 -7.6164 112° Southeast 488 562 46,900  Level FlightAware UK
06:30AM 49.2754 -7.5202 112° Southeast 486 559 46,900  Level FlightAware UK
06:31AM 49.2492 -7.4243 113° Southeast 488 562 46,900  Level FlightAware UK
06:31AM 49.2162 -7.3327 119° Southeast 488 562 46,900  Level FlightAware UK
06:32AM 49.1834 -7.2414 119° Southeast 488 562 46,900  Level FlightAware UK
06:32AM 49.1505 -7.1502 119° Southeast 486 559 46,900  Level FlightAware UK
06:33AM 49.1175 -7.0590 119° Southeast 486 559 46,900  Level FlightAware UK
06:33AM 49.0845 -6.9679 119° Southeast 488 562 46,900  Level FlightAware UK
06:34AM 49.0511 -6.8762 119° Southeast 488 562 46,900  Level FlightAware UK
06:34AM 49.0179 -6.7850 119° Southeast 488 562 46,900  Level FlightAware UK
06:35AM 48.9845 -6.6939 119° Southeast 490 564 46,900  Level FlightAware UK
06:35AM 48.9445 -6.5851 119° Southeast 488 562 46,900  Level FlightAware UK
06:36AM 48.9111 -6.4946 119° Southeast 490 564 46,900  Level FlightAware UK
06:37AM 48.8712 -6.3859 119° Southeast 490 564 46,900  Level FlightAware UK
06:37AM 48.8244 -6.2595 119° Southeast 490 564 46,900  Level FlightAware UK
06:38AM 48.7907 -6.1696 120° Southeast 490 564 46,900  Level FlightAware UK
06:38AM 48.7569 -6.0799 120° Southeast 490 564 46,900  Level FlightAware UK
06:39AM 48.7233 -5.9903 120° Southeast 490 564 46,900  Level FlightAware UK
06:39AM 48.6896 -5.9008 120° Southeast 490 564 46,900  Level FlightAware UK
06:40AM 48.6488 -5.7931 120° Southeast 490 564 46,900  Level FlightAware UK
06:40AM 48.6149 -5.7040 120° Southeast 490 564 46,900  Level FlightAware UK
06:41AM 48.5809 -5.6151 120° Southeast 488 562 46,900  Level FlightAware UK
06:41AM 48.5468 -5.5262 120° Southeast 488 562 46,900  Level FlightAware UK
06:42AM 48.5132 -5.4370 120° Southeast 488 562 46,900  Level FlightAware UK
06:42AM 48.4791 -5.3479 120° Southeast 490 564 46,900  Level FlightAware UK
06:43AM 48.4169 -5.1881 120° Southeast 490 564 46,900  Level FlightAware UK
06:44AM 48.3557 -5.0271 120° Southeast 490 564 46,900  Level FlightAware UK
06:45AM 48.3135 -4.8979 116° Southeast 490 564 46,900  Level FlightAware UK
06:45AM 48.2847 -4.8043 115° Southeast 490 564 46,900  Level FlightAware UK
06:46AM 48.2580 -4.7101 113° Southeast 490 564 46,900  Level FlightAware UK
06:48AM 48.1621 -4.3977 115° Southeast  Level Estimated
06:55AM 47.7459 -3.0851 115° Southeast  Level Estimated
06:56AM 47.6852 -2.8993 116° Southeast  Level Estimated
06:57AM 47.6243 -2.7139 116° Southeast  Level Estimated
06:58AM 47.5630 -2.5290 116° Southeast  Level Estimated
06:59AM 47.5014 -2.3445 116° Southeast  Level Estimated
07:00AM 47.4396 -2.1605 116° Southeast  Level Estimated
07:01AM 47.3774 -1.9769 117° Southeast  Level Estimated
07:02AM 47.3150 -1.7937 117° Southeast  Level Estimated
07:03AM 47.2522 -1.6109 117° Southeast  Level Estimated
07:04AM 47.1892 -1.4286 117° Southeast  Level Estimated
07:05AM 47.1259 -1.2467 117° Southeast  Level Estimated
07:06AM 47.0623 -1.0653 117° Southeast  Level Estimated
07:07AM 46.9984 -0.8842 117° Southeast  Level Estimated
07:08AM 46.9342 -0.7037 117° Southeast  Level Estimated
07:09AM 46.8698 -0.5235 118° Southeast  Level Estimated
07:10AM 46.8051 -0.3438 118° Southeast  Level Estimated
07:11AM 46.7400 -0.1645 118° Southeast  Level Estimated
07:12AM 46.6747 0.0143 118° Southeast  Level Estimated
07:13AM 46.6092 0.1928 118° Southeast  Level Estimated
07:14AM 46.5433 0.3708 118° Southeast  Level Estimated
07:15AM 46.4772 0.5483 118° Southeast  Level Estimated
07:16AM 46.4108 0.7254 118° Southeast  Level Estimated
07:17AM 46.3441 0.9021 119° Southeast  Level Estimated
07:18AM 46.2772 1.0784 119° Southeast  Level Estimated
07:19AM 46.2100 1.2542 119° Southeast  Level Estimated
07:20AM 46.1425 1.4296 119° Southeast  Level Estimated
07:21AM 46.0747 1.6046 119° Southeast  Level Estimated
07:22AM 46.0067 1.7791 119° Southeast  Level Estimated
07:23AM 45.9384 1.9532 119° Southeast  Level Estimated
07:24AM 45.8699 2.1269 119° Southeast  Level Estimated
07:25AM 45.8011 2.3002 120° Southeast  Level Estimated
07:26AM 45.7320 2.4730 120° Southeast  Level Estimated
07:27AM 45.6627 2.6454 120° Southeast  Level Estimated
07:28AM 45.5931 2.8174 120° Southeast  Level Estimated
07:29AM 45.5232 2.9889 120° Southeast  Level Estimated
07:30AM 45.4531 3.1600 120° Southeast  Level Estimated
07:31AM 45.3828 3.3307 120° Southeast  Level Estimated
07:32AM 45.3122 3.5010 120° Southeast  Level Estimated
07:33AM 45.2413 3.6708 121° Southeast  Level Estimated
07:34AM 45.1702 3.8402 121° Southeast  Level Estimated
07:35AM 45.0988 4.0092 121° Southeast  Level Estimated
07:36AM 45.0272 4.1778 121° Southeast  Level Estimated
07:37AM 44.9554 4.3460 121° Southeast  Level Estimated
07:38AM 44.8833 4.5137 121° Southeast  Level Estimated
07:39AM 44.8109 4.6810 121° Southeast  Level Estimated
07:40AM 44.7383 4.8479 121° Southeast  Level Estimated
07:41AM 44.6655 5.0143 122° Southeast  Level Estimated
07:42AM 44.5924 5.1804 122° Southeast  Level Estimated
07:43AM 44.5191 5.3460 122° Southeast  Level Estimated
07:44AM 44.4455 5.5112 122° Southeast  Level Estimated
07:45AM 44.3717 5.6760 122° Southeast  Level Estimated
07:46AM 44.2977 5.8404 122° Southeast  Level Estimated
07:47AM 44.2234 6.0044 122° Southeast  Level Estimated
07:48AM 44.1489 6.1679 122° Southeast  Level Estimated
07:49AM 44.0742 6.3311 122° Southeast  Level Estimated
07:50AM 43.9992 6.4938 123° Southeast  Level Estimated
07:51AM 43.9240 6.6561 123° Southeast  Level Estimated
07:52AM 43.8486 6.8180 123° Southeast  Level Estimated
07:53AM 43.7729 6.9795 123° Southeast  Level Estimated
07:54AM 43.6971 7.1406 123° Southeast  Level Estimated
07:55AM 43.6607 7.2176 123° Southeast  Level Estimated
07:56AM 43.6607 7.2176 144° Southeast  Level Estimated
07:57AM 43.6607 7.2176 144° Southeast  Level Estimated
07:58AM 43.6607 7.2176 144° Southeast  Level Estimated
07:59AM 43.6607 7.2176 144° Southeast  Level Estimated
08:00AM 43.6607 7.2176 144° Southeast  Level Estimated
08:01AM 43.6607 7.2176 144° Southeast  Level Estimated
08:02AM 43.6607 7.2176 144° Southeast  Level Estimated
08:03AM 43.6607 7.2176 144° Southeast  Level Estimated
08:04AM 43.6607 7.2176 144° Southeast  Level Estimated
08:05AM 43.6607 7.2176 144° Southeast  Level Estimated
08:06AM 43.6607 7.2176 144° Southeast  Level Estimated
08:07AM 43.6607 7.2176 144° Southeast  Level Estimated
08:08AM 43.6607 7.2176 144° Southeast  Level Estimated
08:09AM 43.6607 7.2176 144° Southeast  Level Estimated
08:10AM 43.6607 7.2176 144° Southeast  Level Estimated
08:11AM 43.6607 7.2176 144° Southeast  Level Estimated
08:12AM 43.6607 7.2176 144° Southeast  Level Estimated
08:13AM 43.6607 7.2176 144° Southeast  Level Estimated
08:14AM 43.6607 7.2176 144° Southeast  Level Estimated